Hlavní strana
METAR-TAF:

METAR-TAF

Letiště :

Portage la Prairie, Manitoba, Kanada

zeměpisná šířka: 49-54N, zeměpisná délka: 098-16W, výška: 269 m

Aktuální stav počasí

Zpráva byla vytvořena před 48 minutami, v 17:00 UTC
Západní vítr 4 kt
Teplota -27°C
Vlhkost vzduchu 75%
Tlak 1034 hPa
Viditelnost: 24.1 km
Oblačno až skoro zataženo ve výšce 24000 ft

METAR: CYPG 181700Z 28004KT 15SM BKN240 M27/M30 A3052 RMK CI6 SLP373

Čas: 11:48 (17:48 UTC)

Předpověď počasí

Zpráva byla vytvořena před 18 minutami, v 17:30 UTC
Předpověď platná od 18 v 18 UTC do 19 v 06 UTC
Západoseverozápadní vítr 5 kt
Viditelnost: 10 km
Oblačno až skoro zataženo ve výšce 24000 ft
Změna
od 18 v 22 UTC do 18 v 24 UTC
vítr z různých směrů 3 kt
Polojasno ve výšce 20000 ft

TAF: CYPG 181730Z 1818/1906 29005KT P6SM BKN240 BECMG 1822/1824 VRB03KT SCT200 RMK NXT FCST BY 190000Z

Stav a předpovědi počasí z více než 4 000 letišť (zprávy METAR a TAF).

Červené a žluté tečky na mapě představují dostupné meteorologické stanice.

Když kurzor umístíte na tečku, zobrazí se název stanice.

Pak kliknutím zobrazíte stav a předpověď počasí.

Chcete-li změnit mapu, kliknutím na zelené tlačítko se znaménkem +mapu přiblížíte, kliknutím na zelené tlačítko se znaménkem – mapu oddálíte a kliknutím na zelené šipky přejdete na sousední mapy.


METAR-TAF: